Aérodrome :
LOGIN :

S'inscrire | Disclaimer

   EN    FR    IT 

 










Légende :    VFR   VFR Marginal   IFR   IFR Intensif   IFR Très Intensif
Visi : 
Plafond : 
>= 8 km
>= 3000ft
5 à 8 km
1000 à 3000 ft
1500m à 5 km
500 à 1000 ft
800 à 1500m
200 à 500 ft
< 800m
< 200 ft
Symboles :   Orages  Brouillard  Fortes neiges  Fortes précipitations  Vent > 20 kt
SIGMETs :   Divers  Orages  Givrage  Turbulence  Onde Orograph.  Cendres Volcan.






- Altitude de l'aérodrome : 22 ft
- Code IATA : FSS


EGQK - RAF Kinloss

DERNIER METAR :
  • 242350Z AUTO 23006KT 9999 RA SCT013/// BKN021/// 02/01 Q0995

METARs EXPIRÉS :
  • 242250Z AUTO 10005KT 9999 RA SCT011/// BKN015/// 02/02 Q0995
  • 242150Z AUTO 07005KT 9999 RA SCT009/// BKN018/// 03/02 Q0995

TAF TAF EGQK
Valide du 24 à 09h jusqu'au 25 à 03h UTC


240726Z 2409/2503 13005KT 9999 FEW030
BECMG 2409/2410 09015KT
BECMG 2409/2412 BKN010
TEMPO 2410/2420 5000 -RASN
PROB30
TEMPO 2413/2415 3000 RASN BKN006
PROB30
TEMPO 2415/2420 3000 RASN BKN004
PROB30
TEMPO 2420/2503 3000 SHRASN BKN010CB
BECMG 2423/2502 VRB04KT FEW010



MET'MAP, la Météo Aéronautique d'un coup d'oeil ! - Copyright ORBIFLY Décembre 2007 - Disclaimer

ORBIFLY MET'MAP TEAM :

Programmation & Développement : Alexandra Zaïnal
Sur une idée originale de : Baudouin d'Aumeries
Assistance à la programmation : Marc-Olivier Méhu
Soutien technique & logistique : Manuel Goepfert

Contact : metmap@orbifly.com




SOURCES & CREDITS :

   NOAA